Time;durP1;ratioP1;P1;durP2;ratioP2;P2;SDS_P1;SDS_P2;PMS_P1;PMS_P2;Temp;Humidity;BMP_temperature;BMP_pressure;BME280_temperature;BME280_humidity;BME280_pressure;Samples;Min_cycle;Max_cycle;Signal;HPM_P1;HPM_P2
2023/03/21 04:02:13;;;;;;;1.15;1.05;;;18.80;52.10;;;;;;5148441;22;46044;-58
2023/03/21 04:04:40;;;;;;;1.40;1.20;;;18.80;52.10;;;;;;4987538;28;46030;-56
2023/03/21 04:07:06;;;;;;;2.40;1.52;;;18.80;52.10;;;;;;4987935;28;45815;-58
2023/03/21 04:09:32;;;;;;;1.48;1.15;;;18.80;52.10;;;;;;5004736;28;45151;-56
2023/03/21 04:11:57;;;;;;;1.35;1.00;;;18.80;52.00;;;;;;4989869;28;45532;-56
2023/03/21 04:14:23;;;;;;;1.23;1.13;;;18.80;52.10;;;;;;4969607;28;46689;-57
2023/03/21 04:16:49;;;;;;;1.17;1.02;;;18.80;52.10;;;;;;4939760;28;45491;-59
2023/03/21 04:19:15;;;;;;;1.50;1.10;;;18.70;52.10;;;;;;4969762;28;46096;-58
2023/03/21 04:21:40;;;;;;;1.50;1.17;;;18.70;52.00;;;;;;4981851;28;45319;-57
2023/03/21 04:24:06;;;;;;;1.23;1.13;;;18.70;52.10;;;;;;4971742;28;47067;-58
2023/03/21 04:26:34;;;;;;;1.30;1.20;;;18.80;52.10;;;;;;4965981;28;45456;-58
2023/03/21 04:29:00;;;;;;;1.42;1.27;;;18.80;52.10;;;;;;4985421;28;44953;-58
2023/03/21 04:31:27;;;;;;;1.27;1.17;;;18.70;52.10;;;;;;4962500;28;45370;-58
2023/03/21 04:33:54;;;;;;;3.13;1.10;;;18.70;52.10;;;;;;4968011;28;45505;-57
2023/03/21 04:36:29;;;;;;;1.55;1.23;;;18.70;52.10;;;;;;4950379;28;44894;-59
2023/03/21 04:38:59;;;;;;;1.13;0.82;;;18.70;52.10;;;;;;4968309;28;44981;-57
2023/03/21 04:41:26;;;;;;;1.23;1.05;;;18.70;52.10;;;;;;4963524;28;45325;-56
2023/03/21 04:43:51;;;;;;;1.50;1.10;;;18.70;52.10;;;;;;4974722;28;46514;-57
2023/03/21 04:46:17;;;;;;;1.00;0.95;;;18.70;52.10;;;;;;4974621;28;45354;-57
2023/03/21 04:48:42;;;;;;;1.20;1.10;;;18.70;52.20;;;;;;4985168;28;45319;-55
2023/03/21 04:51:08;;;;;;;1.02;0.93;;;18.70;52.10;;;;;;4960410;28;45708;-57
2023/03/21 04:53:33;;;;;;;1.83;1.30;;;18.70;52.10;;;;;;4986662;28;45391;-58
2023/03/21 04:55:59;;;;;;;1.45;1.20;;;18.70;52.20;;;;;;4964587;28;45087;-54
2023/03/21 04:58:25;;;;;;;1.33;1.10;;;18.60;52.10;;;;;;4950733;28;45202;-57
2023/03/21 05:00:51;;;;;;;1.20;0.98;;;18.60;52.10;;;;;;4956198;28;45637;-57
2023/03/21 05:03:19;;;;;;;0.98;0.88;;;18.60;52.10;;;;;;4963581;28;45791;-57
2023/03/21 05:05:45;;;;;;;1.20;1.10;;;18.60;52.10;;;;;;4968593;28;45456;-58
2023/03/21 05:08:12;;;;;;;1.20;1.00;;;18.60;52.10;;;;;;4957155;28;45952;-56
2023/03/21 05:10:37;;;;;;;1.08;0.93;;;18.60;52.20;;;;;;4978599;28;45492;-57
2023/03/21 05:13:03;;;;;;;1.45;1.10;;;18.60;52.10;;;;;;4965797;28;45269;-56
2023/03/21 05:15:28;;;;;;;1.42;1.05;;;18.60;52.10;;;;;;4960524;28;45586;-57
2023/03/21 05:17:54;;;;;;;1.60;1.15;;;18.60;52.10;;;;;;4984950;28;45738;-57
2023/03/21 05:20:19;;;;;;;1.00;0.90;;;18.60;52.20;;;;;;4961815;28;45265;-58
2023/03/21 05:22:48;;;;;;;1.35;1.15;;;18.60;52.10;;;;;;4952338;28;45621;-58
2023/03/21 05:25:17;;;;;;;2.85;1.20;;;18.60;52.10;;;;;;4963566;28;45344;-58
2023/03/21 05:27:44;;;;;;;0.70;0.70;;;18.60;52.10;;;;;;4977069;28;45139;-57
2023/03/21 05:30:16;;;;;;;1.05;0.95;;;18.60;52.70;;;;;;4943179;28;45555;-59
2023/03/21 05:32:41;;;;;;;1.17;0.90;;;18.60;52.20;;;;;;4944070;28;45382;-59
2023/03/21 05:35:07;;;;;;;1.10;1.00;;;18.60;52.20;;;;;;4952677;28;46295;-58
2023/03/21 05:37:33;;;;;;;1.20;1.08;;;18.60;52.20;;;;;;4930720;28;45774;-58
2023/03/21 05:39:58;;;;;;;1.20;1.00;;;18.50;52.20;;;;;;4982936;28;45515;-58
2023/03/21 05:42:24;;;;;;;0.73;0.73;;;18.50;52.30;;;;;;4977046;28;45672;-57
2023/03/21 05:44:50;;;;;;;1.42;1.02;;;18.50;52.20;;;;;;4949822;28;45527;-58
2023/03/21 05:47:16;;;;;;;1.20;1.10;;;18.50;52.20;;;;;;4973911;28;45253;-58
2023/03/21 05:49:41;;;;;;;0.98;0.88;;;18.50;52.20;;;;;;4961100;28;46688;-57
2023/03/21 05:52:07;;;;;;;1.30;1.20;;;18.50;52.20;;;;;;4963023;28;45385;-57
2023/03/21 05:54:33;;;;;;;1.30;1.10;;;18.50;52.20;;;;;;4963624;28;46699;-56
2023/03/21 05:56:58;;;;;;;1.70;1.23;;;18.50;52.30;;;;;;4945851;28;45228;-58
2023/03/21 05:59:24;;;;;;;0.93;0.90;;;18.50;52.20;;;;;;4955928;28;45412;-57
2023/03/21 06:01:49;;;;;;;1.50;1.00;;;18.50;52.30;;;;;;4969546;28;45224;-57
2023/03/21 06:04:15;;;;;;;1.38;1.10;;;18.50;52.30;;;;;;4967665;28;45428;-56
2023/03/21 06:06:40;;;;;;;1.30;1.20;;;18.40;52.20;;;;;;4952997;28;45434;-56
2023/03/21 06:09:06;;;;;;;1.33;1.20;;;18.40;52.20;;;;;;4966804;28;45542;-57
2023/03/21 06:11:35;;;;;;;0.88;0.80;;;18.40;52.20;;;;;;4962134;28;45918;-56
2023/03/21 06:14:00;;;;;;;1.10;0.98;;;18.40;52.20;;;;;;4970835;28;45519;-56
2023/03/21 06:16:27;;;;;;;1.15;1.08;;;18.40;52.20;;;;;;4961296;28;45326;-58
2023/03/21 06:18:54;;;;;;;1.30;1.10;;;18.40;52.20;;;;;;4983096;28;45420;-57
2023/03/21 06:21:19;;;;;;;1.35;1.00;;;18.40;52.20;;;;;;4976663;28;45698;-57
2023/03/21 06:23:45;;;;;;;1.40;0.95;;;18.40;52.30;;;;;;4982014;28;45121;-57
2023/03/21 06:26:11;;;;;;;1.30;1.02;;;18.40;52.20;;;;;;4956645;28;44892;-57
2023/03/21 06:28:37;;;;;;;0.93;0.82;;;18.40;52.30;;;;;;4981188;28;45497;-58
2023/03/21 06:31:02;;;;;;;1.15;1.05;;;18.40;52.20;;;;;;4954048;28;45204;-58
2023/03/21 06:33:28;;;;;;;1.45;1.27;;;18.40;52.20;;;;;;4933547;28;45597;-58
2023/03/21 06:35:55;;;;;;;1.30;0.95;;;18.40;52.20;;;;;;4962242;28;45129;-58
2023/03/21 06:38:20;;;;;;;1.25;1.10;;;18.40;52.20;;;;;;4964812;28;45480;-57
2023/03/21 06:40:46;;;;;;;1.10;1.00;;;18.40;52.20;;;;;;4962032;28;45625;-57
2023/03/21 06:43:12;;;;;;;1.80;1.20;;;18.40;52.20;;;;;;4966506;28;45033;-57
2023/03/21 06:45:38;;;;;;;1.27;1.00;;;18.40;52.20;;;;;;4928460;28;45310;-57
2023/03/21 06:48:03;;;;;;;1.20;1.02;;;18.40;52.10;;;;;;4973882;28;45566;-57
2023/03/21 06:50:29;;;;;;;0.77;0.75;;;18.40;52.10;;;;;;4951383;28;46978;-57
2023/03/21 06:52:56;;;;;;;1.25;0.98;;;18.40;52.10;;;;;;4980290;28;45197;-56
2023/03/21 06:55:25;;;;;;;1.85;1.55;;;18.40;52.10;;;;;;4963780;28;45398;-56
2023/03/21 06:57:51;;;;;;;3.35;1.60;;;18.40;51.40;;;;;;4963916;28;44826;-58
2023/03/21 07:00:18;;;;;;;2.60;2.00;;;18.40;50.10;;;;;;4977852;28;47107;-59
2023/03/21 07:02:44;;;;;;;3.72;2.10;;;18.20;48.90;;;;;;4964501;28;45707;-56
2023/03/21 07:05:10;;;;;;;4.72;2.35;;;18.10;48.50;;;;;;4982944;28;45294;-53
2023/03/21 07:07:35;;;;;;;4.20;2.35;;;18.00;48.60;;;;;;4967026;28;45647;-53
2023/03/21 07:10:01;;;;;;;2.70;1.95;;;18.00;48.70;;;;;;4963137;28;46767;-54
2023/03/21 07:12:26;;;;;;;3.83;1.80;;;18.10;48.70;;;;;;4966102;28;45670;-54
2023/03/21 07:14:52;;;;;;;4.28;1.90;;;18.20;49.40;;;;;;4985787;28;44717;-57
2023/03/21 07:17:17;;;;;;;5.55;1.85;;;18.30;49.10;;;;;;4975535;28;45452;-55
2023/03/21 07:19:43;;;;;;;3.55;1.70;;;18.50;48.90;;;;;;4985810;28;46538;-55
2023/03/21 07:22:08;;;;;;;2.47;1.55;;;18.70;48.70;;;;;;4958621;28;45467;-54
2023/03/21 07:24:34;;;;;;;2.88;1.48;;;18.90;48.40;;;;;;4965087;28;45647;-55
2023/03/21 07:27:00;;;;;;;3.20;1.70;;;19.10;48.10;;;;;;4983433;28;45411;-54
2023/03/21 07:29:25;;;;;;;2.15;1.15;;;19.30;48.10;;;;;;4982119;28;45882;-54
2023/03/21 07:31:51;;;;;;;2.85;1.40;;;19.40;48.10;;;;;;4960037;28;45244;-53
2023/03/21 07:34:17;;;;;;;2.50;1.17;;;19.50;48.00;;;;;;4985903;28;45513;-54
2023/03/21 07:36:43;;;;;;;1.20;0.98;;;19.60;48.00;;;;;;4985756;28;45424;-55
2023/03/21 07:39:08;;;;;;;1.58;1.20;;;19.80;48.00;;;;;;4952706;28;46342;-55
2023/03/21 07:41:34;;;;;;;2.60;1.00;;;19.90;47.90;;;;;;4980786;28;45281;-54
2023/03/21 07:43:59;;;;;;;2.08;1.23;;;20.00;47.80;;;;;;4989053;28;45156;-51
2023/03/21 07:46:25;;;;;;;1.48;1.00;;;20.20;47.80;;;;;;4975020;28;45561;-55
2023/03/21 07:48:51;;;;;;;1.92;0.98;;;20.20;47.80;;;;;;4984619;28;45222;-57
2023/03/21 07:51:16;;;;;;;1.60;0.90;;;20.40;47.70;;;;;;4949567;28;45516;-55
2023/03/21 07:53:44;;;;;;;1.42;1.02;;;20.50;47.70;;;;;;4970787;28;45155;-55
2023/03/21 07:56:09;;;;;;;1.20;0.90;;;20.60;47.60;;;;;;4962715;28;45118;-54
2023/03/21 07:58:35;;;;;;;1.88;1.10;;;20.70;47.50;;;;;;4955280;28;46297;-53
2023/03/21 08:01:01;;;;;;;1.55;1.05;;;20.80;47.50;;;;;;4977960;28;45432;-56
2023/03/21 08:03:28;;;;;;;1.02;0.82;;;20.90;47.50;;;;;;4969818;28;45481;-55
2023/03/21 08:05:54;;;;;;;1.45;0.80;;;21.00;47.40;;;;;;4984921;28;45224;-56
2023/03/21 08:08:19;;;;;;;0.80;0.70;;;21.10;47.30;;;;;;4992616;28;45503;-55
2023/03/21 08:10:45;;;;;;;1.38;0.88;;;21.20;47.30;;;;;;4984017;28;45027;-58
2023/03/21 08:13:11;;;;;;;1.02;0.75;;;21.30;47.20;;;;;;4972790;28;45277;-57
2023/03/21 08:15:38;;;;;;;1.25;1.02;;;21.40;47.20;;;;;;4961765;28;44715;-57
2023/03/21 08:18:04;;;;;;;1.35;0.93;;;21.50;47.10;;;;;;4986254;28;45336;-55
2023/03/21 08:20:29;;;;;;;1.05;0.73;;;21.60;47.10;;;;;;4980683;28;45569;-57
2023/03/21 08:22:55;;;;;;;1.35;1.02;;;21.70;47.00;;;;;;4989116;28;45223;-57
2023/03/21 08:25:21;;;;;;;1.02;0.82;;;21.80;46.90;;;;;;4986503;28;45199;-55
2023/03/21 08:27:47;;;;;;;1.08;0.88;;;21.90;46.90;;;;;;4989923;28;45380;-55
2023/03/21 08:30:15;;;;;;;1.05;0.90;;;22.00;46.80;;;;;;4964655;28;46740;-54
2023/03/21 08:32:41;;;;;;;2.00;0.98;;;22.10;46.70;;;;;;4952865;28;44765;-58
2023/03/21 08:35:09;;;;;;;1.30;0.95;;;22.20;46.50;;;;;;4988430;28;45485;-57
2023/03/21 08:37:35;;;;;;;1.05;0.90;;;22.30;46.40;;;;;;4947148;28;45485;-56
2023/03/21 08:40:01;;;;;;;1.20;0.90;;;22.40;46.30;;;;;;4968015;28;45477;-56
2023/03/21 08:42:26;;;;;;;2.45;0.80;;;22.40;46.20;;;;;;4978194;28;45180;-58
2023/03/21 08:44:52;;;;;;;1.00;0.65;;;22.50;46.20;;;;;;4984421;28;45414;-57
2023/03/21 08:47:17;;;;;;;0.82;0.82;;;22.60;46.20;;;;;;4979924;28;46257;-56
2023/03/21 08:49:44;;;;;;;1.15;0.80;;;22.70;46.10;;;;;;4965931;28;45431;-57
2023/03/21 08:52:10;;;;;;;2.33;0.80;;;22.70;46.00;;;;;;4964874;28;45273;-55
2023/03/21 08:54:36;;;;;;;2.78;0.75;;;22.80;46.00;;;;;;4970103;28;45061;-58
2023/03/21 08:57:02;;;;;;;1.67;0.70;;;22.90;46.00;;;;;;4984128;28;46478;-57
2023/03/21 08:59:28;;;;;;;1.45;1.10;;;22.90;45.90;;;;;;4973650;28;45593;-57
2023/03/21 09:01:53;;;;;;;2.38;0.80;;;23.00;45.90;;;;;;4977442;28;45168;-58
2023/03/21 09:04:19;;;;;;;1.63;1.30;;;23.00;45.80;;;;;;4966438;28;46187;-58
2023/03/21 09:06:47;;;;;;;1.00;0.70;;;23.10;45.80;;;;;;4978897;28;45970;-56
2023/03/21 09:09:14;;;;;;;1.27;0.90;;;23.20;45.80;;;;;;4974339;28;45391;-57
2023/03/21 09:11:39;;;;;;;2.05;1.00;;;23.20;45.70;;;;;;4961329;28;45781;-58
2023/03/21 09:14:05;;;;;;;1.70;0.70;;;23.30;45.60;;;;;;4970481;28;45196;-57
2023/03/21 09:16:31;;;;;;;0.85;0.85;;;23.40;45.60;;;;;;4950257;28;45225;-57
2023/03/21 09:18:58;;;;;;;1.15;0.82;;;23.40;45.60;;;;;;4954932;28;45567;-57
2023/03/21 09:21:24;;;;;;;1.20;0.82;;;23.40;45.50;;;;;;4990621;28;45476;-56
2023/03/21 09:23:51;;;;;;;1.40;0.77;;;23.50;45.50;;;;;;4982205;28;45719;-56
2023/03/21 09:26:18;;;;;;;0.75;0.60;;;23.50;45.40;;;;;;4967692;28;46019;-58
2023/03/21 09:28:45;;;;;;;1.33;0.90;;;23.60;45.40;;;;;;4986044;28;44641;-58
2023/03/21 09:31:11;;;;;;;0.80;0.60;;;23.70;45.40;;;;;;4946146;28;45274;-58
2023/03/21 09:33:39;;;;;;;0.70;0.70;;;23.70;45.40;;;;;;4968470;28;45076;-56
2023/03/21 09:36:10;;;;;;;1.80;0.95;;;23.70;45.30;;;;;;4971042;28;45520;-57
2023/03/21 09:38:36;;;;;;;0.70;0.60;;;23.80;45.30;;;;;;4984983;28;45195;-56
2023/03/21 09:41:08;;;;;;;0.88;0.65;;;23.80;45.30;;;;;;4983861;28;45909;-57
2023/03/21 09:43:55;;;;;;;0.82;0.77;;;23.90;45.20;;;;;;4988131;28;45001;-58
2023/03/21 09:46:29;;;;;;;0.77;0.68;;;23.90;45.10;;;;;;4976599;28;47044;-57
2023/03/21 09:48:57;;;;;;;0.77;0.47;;;24.00;45.10;;;;;;4970755;28;45291;-56
2023/03/21 09:51:27;;;;;;;0.90;0.68;;;24.00;45.20;;;;;;4963405;28;44826;-57
2023/03/21 09:53:53;;;;;;;1.17;0.60;;;24.10;45.20;;;;;;4954894;28;45759;-57
2023/03/21 09:56:20;;;;;;;1.25;0.70;;;24.10;45.10;;;;;;4950784;28;45651;-57
2023/03/21 09:58:51;;;;;;;0.85;0.70;;;24.10;45.00;;;;;;4971497;28;45566;-57
2023/03/21 10:01:31;;;;;;;1.50;0.65;;;24.20;45.00;;;;;;4977470;28;45470;-58
2023/03/21 10:03:59;;;;;;;0.90;0.65;;;24.20;44.80;;;;;;4952469;28;45444;-55
2023/03/21 10:06:29;;;;;;;1.05;0.68;;;24.30;45.00;;;;;;4964652;28;45597;-58
2023/03/21 10:09:14;;;;;;;0.88;0.60;;;24.40;45.00;;;;;;4951731;28;45224;-58
2023/03/21 10:11:52;;;;;;;1.60;0.70;;;24.40;44.50;;;;;;4962621;28;44778;-58
2023/03/21 10:14:18;;;;;;;3.10;0.60;;;24.40;44.70;;;;;;4970526;28;45014;-57
2023/03/21 10:16:45;;;;;;;1.23;0.80;;;24.40;44.80;;;;;;4950948;28;46537;-58
2023/03/21 10:19:16;;;;;;;0.70;0.65;;;24.50;44.80;;;;;;4967376;28;45203;-55
2023/03/21 10:21:46;;;;;;;1.98;0.70;;;24.60;44.80;;;;;;4979593;28;45561;-56
2023/03/21 10:24:16;;;;;;;1.55;0.75;;;24.60;44.80;;;;;;4954284;28;45524;-56
2023/03/21 10:26:42;;;;;;;0.65;0.55;;;24.60;44.70;;;;;;4948771;28;45608;-56
2023/03/21 10:29:09;;;;;;;0.88;0.70;;;24.70;44.80;;;;;;4957425;28;45457;-57
2023/03/21 10:31:34;;;;;;;0.55;0.47;;;24.70;44.70;;;;;;4946630;28;45497;-59
2023/03/21 10:34:15;;;;;;;0.65;0.60;;;24.80;44.70;;;;;;4969366;28;45633;-57
2023/03/21 10:36:40;;;;;;;1.10;0.60;;;24.80;44.60;;;;;;4964438;28;45590;-58
2023/03/21 10:39:09;;;;;;;0.82;0.60;;;24.80;44.70;;;;;;4957498;28;45282;-56
2023/03/21 10:41:37;;;;;;;0.90;0.57;;;24.90;44.60;;;;;;4962673;28;45446;-58
2023/03/21 10:44:07;;;;;;;0.43;0.43;;;24.90;44.70;;;;;;4972451;28;45299;-59
2023/03/21 10:46:33;;;;;;;0.95;0.60;;;25.00;44.60;;;;;;4975971;28;45612;-56
2023/03/21 10:48:59;;;;;;;0.80;0.63;;;24.90;44.60;;;;;;4969235;28;44846;-56
2023/03/21 10:51:27;;;;;;;0.73;0.60;;;24.90;44.60;;;;;;4975738;28;44907;-58
2023/03/21 10:54:07;;;;;;;1.30;0.40;;;24.80;44.70;;;;;;4948455;28;45103;-59
2023/03/21 10:56:37;;;;;;;1.08;0.60;;;24.80;44.80;;;;;;4948108;28;45475;-58
2023/03/21 10:59:03;;;;;;;1.58;0.55;;;24.80;44.90;;;;;;4985008;28;44979;-60
2023/03/21 11:01:42;;;;;;;0.70;0.50;;;24.80;45.00;;;;;;4933428;28;45558;-58
2023/03/21 11:04:16;;;;;;;1.33;0.60;;;24.80;44.90;;;;;;4943592;28;45236;-56
2023/03/21 11:06:50;;;;;;;2.10;0.60;;;24.90;44.90;;;;;;4944014;28;46715;-56
2023/03/21 11:09:20;;;;;;;1.65;0.80;;;24.90;44.90;;;;;;4947042;28;44971;-59
2023/03/21 11:12:00;;;;;;;0.80;0.70;;;25.00;45.40;;;;;;4940236;28;45659;-59
2023/03/21 11:14:40;;;;;;;0.52;0.50;;;25.00;44.60;;;;;;4941759;28;45520;-59
2023/03/21 11:17:18;;;;;;;0.60;0.50;;;25.10;44.60;;;;;;4961716;28;45997;-58
2023/03/21 11:20:11;;;;;;;0.40;0.40;;;25.10;44.40;;;;;;4961326;28;45266;-59
2023/03/21 11:22:39;;;;;;;0.57;0.57;;;25.10;44.40;;;;;;4922849;28;44918;-58
2023/03/21 11:25:06;;;;;;;0.82;0.60;;;25.00;44.70;;;;;;4930667;28;45407;-60
2023/03/21 11:27:32;;;;;;;1.98;0.60;;;25.00;44.90;;;;;;4917425;28;45742;-58
2023/03/21 11:29:58;;;;;;;0.68;0.57;;;24.90;45.00;;;;;;4969255;28;45418;-59
2023/03/21 11:32:33;;;;;;;1.02;0.63;;;24.80;45.10;;;;;;4960121;28;45421;-59
2023/03/21 11:35:06;;;;;;;0.82;0.65;;;24.80;45.20;;;;;;4968250;28;45215;-59
2023/03/21 11:37:32;;;;;;;1.33;0.50;;;24.80;45.20;;;;;;4968380;28;45980;-60
2023/03/21 11:40:06;;;;;;;0.45;0.40;;;24.90;45.10;;;;;;4956434;28;45346;-60
2023/03/21 11:42:38;;;;;;;0.47;0.45;;;24.90;44.90;;;;;;4963785;28;45171;-58
2023/03/21 11:45:11;;;;;;;0.63;0.50;;;25.00;45.00;;;;;;4952039;28;45560;-60
2023/03/21 11:47:38;;;;;;;1.45;0.70;;;25.10;44.80;;;;;;4970361;28;45517;-60
2023/03/21 11:50:18;;;;;;;1.08;0.60;;;25.10;44.90;;;;;;4937117;28;44995;-61
2023/03/21 11:52:54;;;;;;;1.00;0.60;;;25.10;44.60;;;;;;4955033;28;45419;-59
2023/03/21 11:55:37;;;;;;;0.77;0.50;;;25.10;44.60;;;;;;4972494;28;45161;-60
2023/03/21 11:58:35;;;;;;;1.10;0.60;;;25.10;44.60;;;;;;4962880;28;46181;-60
2023/03/21 12:01:03;;;;;;;0.50;0.45;;;25.00;44.80;;;;;;4945790;28;45418;-59
2023/03/21 12:03:44;;;;;;;0.60;0.40;;;24.90;45.10;;;;;;4967354;28;45384;-58
2023/03/21 12:06:21;;;;;;;1.48;0.45;;;24.80;45.20;;;;;;4930644;28;45152;-59
2023/03/21 12:08:56;;;;;;;0.50;0.50;;;24.90;45.30;;;;;;4954006;28;45953;-59
2023/03/21 12:11:44;;;;;;;0.80;0.43;;;24.90;45.30;;;;;;4960134;28;45328;-59
2023/03/21 12:14:29;;;;;;;2.05;0.63;;;24.90;45.20;;;;;;4968370;28;45296;-58
2023/03/21 12:17:32;;;;;;;1.08;0.55;;;25.00;45.10;;;;;;4950303;28;45727;-59
2023/03/21 12:20:21;;;;;;;0.82;0.50;;;25.10;45.00;;;;;;4961993;28;45341;-60
2023/03/21 12:23:07;;;;;;;0.50;0.40;;;25.10;44.90;;;;;;4971196;28;44656;-58
2023/03/21 12:25:39;;;;;;;0.60;0.45;;;25.10;44.90;;;;;;4943163;28;45348;-59
2023/03/21 12:28:14;;;;;;;0.52;0.50;;;25.10;45.00;;;;;;4953810;28;44766;-60
2023/03/21 12:30:55;;;;;;;0.40;0.35;;;25.10;45.10;;;;;;4966159;28;45223;-57
2023/03/21 12:33:35;;;;;;;0.60;0.47;;;25.00;45.10;;;;;;4987670;28;45467;-57
2023/03/21 12:36:17;;;;;;;0.47;0.40;;;24.90;45.40;;;;;;4960122;28;45269;-60
2023/03/21 12:38:53;;;;;;;1.50;0.70;;;24.90;45.60;;;;;;4971728;28;44833;-59
2023/03/21 12:41:22;;;;;;;0.75;0.50;;;24.90;45.60;;;;;;4939199;28;47221;-60
2023/03/21 12:44:04;;;;;;;0.55;0.47;;;24.90;45.60;;;;;;4967992;28;45311;-60
2023/03/21 12:46:49;;;;;;;0.50;0.50;;;25.00;45.50;;;;;;4959729;28;45486;-59
2023/03/21 12:49:35;;;;;;;0.98;0.60;;;25.10;45.40;;;;;;4989233;28;45855;-60
2023/03/21 12:52:13;;;;;;;0.47;0.40;;;25.20;45.30;;;;;;4947368;28;46018;-57
2023/03/21 12:54:41;;;;;;;0.70;0.57;;;25.20;45.40;;;;;;4986298;28;45223;-60
2023/03/21 12:57:10;;;;;;;0.88;0.40;;;25.20;45.30;;;;;;4963147;28;45186;-59
2023/03/21 12:59:48;;;;;;;0.68;0.57;;;25.10;45.30;;;;;;4975449;28;45648;-58
2023/03/21 13:02:34;;;;;;;0.80;0.70;;;25.10;45.40;;;;;;4973498;28;46791;-58
2023/03/21 13:05:16;;;;;;;0.80;0.40;;;25.00;45.50;;;;;;4977849;28;45202;-59
2023/03/21 13:07:42;;;;;;;1.02;0.50;;;24.90;45.70;;;;;;4962751;28;45296;-59
2023/03/21 13:10:13;;;;;;;0.90;0.60;;;24.90;45.90;;;;;;4933071;28;45259;-59
2023/03/21 13:12:48;;;;;;;1.75;0.68;;;24.90;45.90;;;;;;4959182;28;45626;-60
2023/03/21 13:15:26;;;;;;;0.40;0.40;;;25.00;45.90;;;;;;4947473;28;45230;-61
2023/03/21 13:18:14;;;;;;;0.40;0.40;;;25.00;45.80;;;;;;4959595;28;45316;-59
2023/03/21 13:20:46;;;;;;;2.03;0.50;;;25.10;45.70;;;;;;4967178;28;45110;-58
2023/03/21 13:23:12;;;;;;;0.60;0.45;;;25.10;45.60;;;;;;4973995;28;46308;-58
2023/03/21 13:25:46;;;;;;;0.65;0.40;;;25.20;45.70;;;;;;4952062;28;44790;-57
2023/03/21 13:28:17;;;;;;;0.88;0.40;;;25.20;45.60;;;;;;4970588;28;45182;-58
2023/03/21 13:30:43;;;;;;;0.43;0.40;;;25.20;45.70;;;;;;4983320;28;45478;-58
2023/03/21 13:33:13;;;;;;;0.70;0.55;;;25.30;45.70;;;;;;4966166;28;45555;-60
2023/03/21 13:35:41;;;;;;;0.38;0.30;;;25.30;45.60;;;;;;4964509;28;45105;-60
2023/03/21 13:38:19;;;;;;;0.82;0.57;;;25.30;45.60;;;;;;4980853;28;45315;-58
2023/03/21 13:40:49;;;;;;;0.55;0.32;;;25.30;45.70;;;;;;4981491;28;45335;-59
2023/03/21 13:44:02;;;;;;;1.80;0.43;;;25.20;45.70;;;;;;4970337;28;45258;-60
2023/03/21 13:46:27;;;;;;;0.75;0.47;;;25.10;45.80;;;;;;4926428;28;45412;-60
2023/03/21 13:49:08;;;;;;;0.30;0.30;;;25.00;46.00;;;;;;4955167;28;45181;-62
2023/03/21 13:51:40;;;;;;;0.65;0.50;;;25.00;46.10;;;;;;4986864;28;45342;-61
2023/03/21 13:54:06;;;;;;;0.35;0.35;;;24.90;46.20;;;;;;4992741;28;46869;-61
2023/03/21 13:56:51;;;;;;;0.60;0.45;;;24.90;46.30;;;;;;4984257;28;45168;-60
2023/03/21 13:59:31;;;;;;;0.88;0.43;;;24.90;46.30;;;;;;4996462;28;45263;-61
2023/03/21 14:02:18;;;;;;;0.30;0.30;;;24.80;46.40;;;;;;4974828;28;45224;-61
2023/03/21 14:04:44;;;;;;;1.45;0.43;;;24.80;46.50;;;;;;4988212;28;45682;-60
2023/03/21 14:07:22;;;;;;;0.68;0.50;;;24.80;46.60;;;;;;4963517;28;45210;-58
2023/03/21 14:09:49;;;;;;;0.73;0.50;;;24.80;46.70;;;;;;4972438;28;45495;-60
2023/03/21 14:12:17;;;;;;;0.40;0.35;;;24.70;46.70;;;;;;4949787;28;45188;-60
2023/03/21 14:14:48;;;;;;;0.40;0.40;;;24.70;46.90;;;;;;4983160;28;45985;-60
2023/03/21 14:17:27;;;;;;;0.32;0.30;;;24.60;46.90;;;;;;4953509;28;45269;-60
2023/03/21 14:19:54;;;;;;;0.57;0.47;;;24.60;47.00;;;;;;4972265;28;44720;-61
2023/03/21 14:22:20;;;;;;;0.38;0.38;;;24.50;47.00;;;;;;4982140;28;45722;-60
2023/03/21 14:24:59;;;;;;;0.65;0.40;;;24.50;47.10;;;;;;4958749;28;45214;-61
2023/03/21 14:27:27;;;;;;;0.50;0.40;;;24.50;47.20;;;;;;4973060;28;45351;-63
2023/03/21 14:29:52;;;;;;;0.40;0.40;;;24.50;47.30;;;;;;4958642;28;45330;-59
2023/03/21 14:32:20;;;;;;;0.40;0.35;;;24.40;47.20;;;;;;4952614;28;46027;-60
2023/03/21 14:34:47;;;;;;;2.03;0.57;;;24.40;47.30;;;;;;4969075;28;45427;-60
2023/03/21 14:37:29;;;;;;;0.73;0.52;;;24.40;47.40;;;;;;4959059;28;45285;-60
2023/03/21 14:40:07;;;;;;;0.82;0.50;;;24.40;47.50;;;;;;4973156;28;45148;-59
2023/03/21 14:42:34;;;;;;;0.60;0.40;;;24.30;47.50;;;;;;4974503;28;45424;-59
2023/03/21 14:45:05;;;;;;;0.47;0.47;;;24.30;47.50;;;;;;4961195;28;45664;-60
2023/03/21 14:47:31;;;;;;;0.43;0.40;;;24.20;47.50;;;;;;4949821;28;45270;-60
2023/03/21 14:49:57;;;;;;;0.63;0.38;;;24.30;47.60;;;;;;4988781;28;44897;-61
2023/03/21 14:52:32;;;;;;;4.35;0.40;;;24.20;47.60;;;;;;4952665;28;45535;-60
2023/03/21 14:54:59;;;;;;;0.30;0.30;;;24.10;47.70;;;;;;4972687;28;46436;-60
2023/03/21 14:57:27;;;;;;;1.33;0.40;;;24.20;47.70;;;;;;4961078;28;44690;-61
2023/03/21 14:59:53;;;;;;;0.65;0.52;;;24.10;47.80;;;;;;4958083;28;45190;-59
2023/03/21 15:02:33;;;;;;;0.30;0.30;;;24.10;47.80;;;;;;4957805;28;45264;-60
2023/03/21 15:05:19;;;;;;;0.57;0.45;;;24.10;47.90;;;;;;4952767;28;45255;-60
2023/03/21 15:08:11;;;;;;;0.63;0.52;;;24.00;47.90;;;;;;4979234;28;45367;-60
2023/03/21 15:10:37;;;;;;;1.48;0.57;;;24.00;48.00;;;;;;4968231;28;45860;-59
2023/03/21 15:13:24;;;;;;;0.80;0.50;;;24.00;48.00;;;;;;4972763;28;45200;-59
2023/03/21 15:15:53;;;;;;;0.57;0.50;;;24.00;48.10;;;;;;4969845;28;45646;-60
2023/03/21 15:18:24;;;;;;;0.38;0.30;;;23.90;48.10;;;;;;4976111;28;45154;-60
2023/03/21 15:20:49;;;;;;;2.13;0.40;;;23.90;48.10;;;;;;4944643;28;45209;-59
2023/03/21 15:23:25;;;;;;;0.55;0.40;;;23.90;48.20;;;;;;4969863;28;45529;-60
2023/03/21 15:25:50;;;;;;;0.40;0.40;;;23.90;48.30;;;;;;4948952;28;45362;-60
2023/03/21 15:28:16;;;;;;;0.35;0.30;;;23.80;48.30;;;;;;4977119;28;45410;-60
2023/03/21 15:30:49;;;;;;;0.60;0.60;;;23.80;48.30;;;;;;4970663;28;45583;-59
2023/03/21 15:33:14;;;;;;;0.47;0.40;;;23.80;48.40;;;;;;4953296;28;45700;-58
2023/03/21 15:35:47;;;;;;;0.40;0.40;;;23.70;48.40;;;;;;4965686;28;45527;-58
2023/03/21 15:38:36;;;;;;;0.30;0.30;;;23.70;48.40;;;;;;4972469;28;45463;-61
2023/03/21 15:41:20;;;;;;;0.40;0.32;;;23.70;48.60;;;;;;4972938;28;45117;-61
2023/03/21 15:43:45;;;;;;;0.55;0.40;;;23.70;48.70;;;;;;4961035;28;44981;-60
2023/03/21 15:46:15;;;;;;;0.40;0.40;;;23.70;48.60;;;;;;4970134;28;46121;-60
2023/03/21 15:48:41;;;;;;;0.40;0.40;;;23.70;48.70;;;;;;4972570;28;44951;-60
2023/03/21 15:51:13;;;;;;;0.40;0.40;;;23.60;48.60;;;;;;4953773;28;45480;-60
2023/03/21 15:53:38;;;;;;;0.52;0.45;;;23.60;48.60;;;;;;4961018;28;45289;-60
2023/03/21 15:56:04;;;;;;;0.68;0.43;;;23.60;48.70;;;;;;4969425;28;45788;-61
2023/03/21 15:58:40;;;;;;;0.68;0.38;;;23.60;48.70;;;;;;4973889;28;44702;-61
2023/03/21 16:01:16;;;;;;;0.43;0.32;;;23.50;48.80;;;;;;4928571;28;44730;-59
2023/03/21 16:03:46;;;;;;;0.30;0.30;;;23.50;48.90;;;;;;4975453;28;45217;-60
2023/03/21 16:06:15;;;;;;;0.70;0.50;;;23.50;48.90;;;;;;4955568;28;46701;-58
2023/03/21 16:08:45;;;;;;;0.40;0.35;;;23.50;49.00;;;;;;4992060;28;45154;-60
2023/03/21 16:11:25;;;;;;;0.40;0.40;;;23.40;49.00;;;;;;4961907;28;45378;-59
2023/03/21 16:13:51;;;;;;;0.85;0.40;;;23.40;49.20;;;;;;4972960;28;45110;-58
2023/03/21 16:16:19;;;;;;;0.40;0.40;;;23.40;49.10;;;;;;4925477;28;45319;-60
2023/03/21 16:18:45;;;;;;;0.40;0.40;;;23.40;49.20;;;;;;4968348;28;44953;-59
2023/03/21 16:21:14;;;;;;;0.80;0.52;;;23.30;49.10;;;;;;4980825;28;45213;-59
2023/03/21 16:23:40;;;;;;;0.52;0.52;;;23.30;49.20;;;;;;4958184;28;44829;-60
2023/03/21 16:26:09;;;;;;;0.57;0.47;;;23.30;49.20;;;;;;4955728;28;46441;-60
2023/03/21 16:28:35;;;;;;;0.40;0.40;;;23.30;49.20;;;;;;4943672;28;44679;-60
2023/03/21 16:31:00;;;;;;;0.60;0.50;;;23.20;49.90;;;;;;4979083;28;45003;-59
2023/03/21 16:33:26;;;;;;;0.63;0.40;;;23.20;49.30;;;;;;4952401;28;45818;-57
2023/03/21 16:35:52;;;;;;;0.40;0.38;;;23.20;49.30;;;;;;4978518;28;45776;-60
2023/03/21 16:38:18;;;;;;;0.55;0.30;;;23.20;49.40;;;;;;4975144;28;45150;-59
2023/03/21 16:40:44;;;;;;;2.10;0.30;;;23.20;49.40;;;;;;4956809;28;45293;-59
2023/03/21 16:43:09;;;;;;;0.50;0.50;;;23.20;49.40;;;;;;4984436;28;45279;-60
2023/03/21 16:45:35;;;;;;;2.03;0.55;;;23.20;49.50;;;;;;4959067;28;46315;-59
2023/03/21 16:48:01;;;;;;;0.65;0.40;;;23.20;49.50;;;;;;4987003;28;45107;-60
2023/03/21 16:50:35;;;;;;;0.80;0.50;;;23.10;49.40;;;;;;4944852;28;45344;-59
2023/03/21 16:53:00;;;;;;;0.57;0.50;;;23.10;49.60;;;;;;4965339;28;45501;-59
2023/03/21 16:55:26;;;;;;;1.77;0.30;;;23.10;49.50;;;;;;4951877;28;45690;-59
2023/03/21 16:57:51;;;;;;;0.40;0.40;;;23.10;49.60;;;;;;4964809;28;46797;-59
2023/03/21 17:00:21;;;;;;;0.98;0.60;;;23.00;49.60;;;;;;4940970;28;45191;-60
2023/03/21 17:02:47;;;;;;;0.43;0.40;;;23.00;49.60;;;;;;4951213;28;44828;-59